createdAt,value
2022-07-27T00:01:18.797Z,100.00
2022-07-27T00:03:48.613Z,100.00
2022-07-27T00:06:18.393Z,100.00
2022-07-27T00:08:47.506Z,100.00
2022-07-27T00:11:16.907Z,100.00
2022-07-27T00:13:47.478Z,100.00
2022-07-27T00:16:16.803Z,100.00
2022-07-27T00:18:45.933Z,100.00
2022-07-27T00:21:16.397Z,100.00
2022-07-27T00:23:45.690Z,100.00
2022-07-27T00:26:15.080Z,100.00
2022-07-27T00:28:44.359Z,100.00
2022-07-27T00:31:13.815Z,100.00
2022-07-27T00:33:43.170Z,100.00
2022-07-27T00:36:12.459Z,100.00
2022-07-27T00:38:41.662Z,100.00
2022-07-27T00:41:11.867Z,100.00
2022-07-27T00:43:41.616Z,100.00
2022-07-27T00:46:10.992Z,100.00
2022-07-27T00:48:40.231Z,100.00
2022-07-27T00:51:10.148Z,100.00
2022-07-27T00:53:39.490Z,100.00
2022-07-27T00:56:08.918Z,100.00
2022-07-27T00:58:38.187Z,100.00
2022-07-27T01:01:08.257Z,100.00
2022-07-27T01:03:37.560Z,100.00
2022-07-27T01:06:09.550Z,100.00
2022-07-27T01:08:39.481Z,100.00
2022-07-27T01:11:08.879Z,100.00
2022-07-27T01:13:38.861Z,100.00
2022-07-27T01:16:08.185Z,100.00
2022-07-27T01:18:37.616Z,100.00
2022-07-27T01:21:06.849Z,100.00
2022-07-27T01:23:36.646Z,100.00
2022-07-27T01:26:05.951Z,100.00
2022-07-27T01:28:35.610Z,100.00
2022-07-27T01:31:04.855Z,100.00
2022-07-27T01:33:34.289Z,100.00
2022-07-27T01:36:03.452Z,100.00
2022-07-27T01:38:35.816Z,100.00
2022-07-27T01:41:04.987Z,100.00
2022-07-27T01:43:34.292Z,100.00
2022-07-27T01:46:05.211Z,100.00
2022-07-27T01:48:34.731Z,100.00
2022-07-27T01:51:04.048Z,100.00
2022-07-27T01:53:33.396Z,100.00
2022-07-27T01:56:02.651Z,100.00
2022-07-27T01:58:31.967Z,100.00
2022-07-27T02:01:01.328Z,100.00
2022-07-27T02:03:30.692Z,100.00
2022-07-27T02:05:59.936Z,100.00
2022-07-27T02:08:29.272Z,100.00
2022-07-27T02:11:16.168Z,100.00
2022-07-27T02:13:45.563Z,100.00
2022-07-27T02:16:16.564Z,100.00
2022-07-27T02:18:48.786Z,100.00
2022-07-27T02:21:18.711Z,100.00
2022-07-27T02:23:48.896Z,100.00
2022-07-27T02:26:18.479Z,100.00
2022-07-27T02:28:47.818Z,100.00
2022-07-27T02:31:17.072Z,100.00
2022-07-27T02:33:46.360Z,100.00
2022-07-27T02:36:15.616Z,100.00
2022-07-27T02:38:44.888Z,100.00
2022-07-27T02:41:15.116Z,100.00
2022-07-27T02:43:44.485Z,100.00
2022-07-27T02:46:13.818Z,100.00
2022-07-27T02:48:43.291Z,100.00
2022-07-27T02:51:12.467Z,100.00
2022-07-27T02:53:41.721Z,100.00
2022-07-27T02:56:11.518Z,100.00
2022-07-27T02:58:41.032Z,100.00
2022-07-27T03:01:10.457Z,100.00
2022-07-27T03:03:40.139Z,100.00
2022-07-27T03:06:09.866Z,100.00
2022-07-27T03:08:39.137Z,100.00
2022-07-27T03:11:09.379Z,100.00
2022-07-27T03:13:38.710Z,100.00
2022-07-27T03:16:08.094Z,100.00
2022-07-27T03:18:38.901Z,100.00
2022-07-27T03:21:08.679Z,100.00
2022-07-27T03:23:38.002Z,100.00
2022-07-27T03:26:07.404Z,100.00
2022-07-27T03:28:36.720Z,100.00
2022-07-27T03:31:06.030Z,100.00
2022-07-27T03:33:35.338Z,100.00
2022-07-27T03:36:04.577Z,100.00
2022-07-27T03:38:33.801Z,100.00
2022-07-27T03:41:03.037Z,100.00
2022-07-27T03:43:32.387Z,100.00
2022-07-27T03:46:01.663Z,100.00
2022-07-27T03:48:31.047Z,100.00
2022-07-27T03:51:00.317Z,100.00
2022-07-27T03:53:29.668Z,100.00
2022-07-27T03:55:59.075Z,100.00
2022-07-27T03:58:28.375Z,100.00
2022-07-27T04:00:57.774Z,100.00
2022-07-27T04:03:27.140Z,100.00
2022-07-27T04:05:56.704Z,100.00
2022-07-27T04:08:25.895Z,100.00
2022-07-27T04:10:55.277Z,100.00
2022-07-27T04:13:26.888Z,100.00
2022-07-27T04:15:58.497Z,100.00
2022-07-27T04:18:27.856Z,100.00
2022-07-27T04:20:57.170Z,100.00
2022-07-27T04:23:26.496Z,100.00
2022-07-27T04:25:55.916Z,100.00
2022-07-27T04:28:25.122Z,100.00
2022-07-27T04:30:55.932Z,100.00
2022-07-27T04:33:25.326Z,100.00
2022-07-27T04:35:54.660Z,100.00
2022-07-27T04:38:23.974Z,100.00
2022-07-27T04:40:58.025Z,100.00
2022-07-27T04:43:29.613Z,100.00
2022-07-27T04:45:59.324Z,100.00
2022-07-27T04:48:28.641Z,100.00
2022-07-27T04:50:57.944Z,100.00
2022-07-27T04:53:27.101Z,100.00
2022-07-27T04:55:56.342Z,100.00
2022-07-27T04:58:25.519Z,100.00
2022-07-27T05:00:54.762Z,100.00
2022-07-27T05:03:24.063Z,100.00
2022-07-27T05:05:53.301Z,100.00
2022-07-27T05:08:23.441Z,100.00
2022-07-27T05:10:52.768Z,100.00
2022-07-27T05:13:22.062Z,100.00
2022-07-27T05:15:55.404Z,100.00
2022-07-27T05:18:25.822Z,100.00
2022-07-27T05:20:55.911Z,100.00
2022-07-27T05:23:25.286Z,100.00
2022-07-27T05:25:54.594Z,100.00
2022-07-27T05:28:23.977Z,100.00
2022-07-27T05:30:53.497Z,100.00
2022-07-27T05:33:22.820Z,100.00
2022-07-27T05:35:52.464Z,100.00
2022-07-27T05:38:21.823Z,100.00
2022-07-27T05:40:51.180Z,100.00
2022-07-27T05:43:20.605Z,100.00
2022-07-27T05:45:50.908Z,100.00
2022-07-27T05:48:20.366Z,100.00
2022-07-27T05:50:49.648Z,100.00
2022-07-27T05:53:18.951Z,100.00
2022-07-27T05:55:58.122Z,99.98
2022-07-27T05:58:30.100Z,99.90
2022-07-27T06:01:00.180Z,98.62
2022-07-27T06:03:29.989Z,96.55
2022-07-27T06:06:13.195Z,93.84
2022-07-27T06:08:42.866Z,92.55
2022-07-27T06:11:12.700Z,90.27
2022-07-27T06:13:42.556Z,92.00
2022-07-27T06:16:12.390Z,89.14
2022-07-27T06:18:41.648Z,87.18
2022-07-27T06:21:11.041Z,86.25
2022-07-27T06:23:40.459Z,86.49
2022-07-27T06:26:09.863Z,84.33
2022-07-27T06:28:39.258Z,82.98
2022-07-27T06:31:08.846Z,82.50
2022-07-27T06:33:38.963Z,82.74
2022-07-27T06:36:08.993Z,82.12
2022-07-27T06:38:39.134Z,82.57
2022-07-27T06:41:08.531Z,82.12
2022-07-27T06:43:37.810Z,80.47
2022-07-27T06:46:08.097Z,80.62
2022-07-27T06:48:37.383Z,81.10
2022-07-27T06:51:07.512Z,82.81
2022-07-27T06:53:37.298Z,81.62
2022-07-27T06:56:09.040Z,77.30
2022-07-27T06:58:39.200Z,78.26
2022-07-27T07:01:08.566Z,77.84
2022-07-27T07:03:38.536Z,78.09
2022-07-27T07:06:07.888Z,75.52
2022-07-27T07:08:37.232Z,72.87
2022-07-27T07:11:06.697Z,70.82
2022-07-27T07:13:39.269Z,72.09
2022-07-27T07:16:11.394Z,72.09
2022-07-27T07:18:40.653Z,72.06
2022-07-27T07:21:09.941Z,71.98
2022-07-27T07:23:39.182Z,73.30
2022-07-27T07:26:08.493Z,73.98
2022-07-27T07:28:37.781Z,74.79
2022-07-27T07:31:07.254Z,75.81
2022-07-27T07:33:36.634Z,76.67
2022-07-27T07:36:12.352Z,77.64
2022-07-27T07:38:44.669Z,77.80
2022-07-27T07:41:13.993Z,77.73
2022-07-27T07:43:43.471Z,77.00
2022-07-27T07:46:12.714Z,77.14
2022-07-27T07:48:43.949Z,76.97
2022-07-27T07:51:13.207Z,76.72
2022-07-27T07:53:42.540Z,77.57
2022-07-27T07:56:11.877Z,76.66
2022-07-27T07:58:41.215Z,75.73
2022-07-27T08:01:12.792Z,74.42
2022-07-27T08:03:44.097Z,75.02
2022-07-27T08:06:17.108Z,74.10
2022-07-27T08:08:46.488Z,72.88
2022-07-27T08:11:15.874Z,72.83
2022-07-27T08:13:45.259Z,72.47
2022-07-27T08:16:14.636Z,71.52
2022-07-27T08:18:43.807Z,70.50
2022-07-27T08:21:13.048Z,69.32
2022-07-27T08:23:42.427Z,70.56
2022-07-27T08:26:11.810Z,70.71
2022-07-27T08:28:41.327Z,68.50
2022-07-27T08:31:14.191Z,66.74
2022-07-27T08:33:45.224Z,67.94
2022-07-27T08:36:14.551Z,65.77
2022-07-27T08:38:43.734Z,65.30
2022-07-27T08:41:13.776Z,65.06
2022-07-27T08:43:43.116Z,63.50
2022-07-27T08:46:12.472Z,64.13
2022-07-27T08:48:42.071Z,62.94
2022-07-27T08:51:11.342Z,62.82
2022-07-27T08:53:52.550Z,62.21
2022-07-27T08:56:23.623Z,61.57
2022-07-27T08:58:53.482Z,59.45
2022-07-27T09:01:23.112Z,59.55
2022-07-27T09:03:53.018Z,58.37
2022-07-27T09:06:22.423Z,57.60
2022-07-27T09:08:53.442Z,55.29
2022-07-27T09:11:23.409Z,55.68
2022-07-27T09:13:53.359Z,54.06
2022-07-27T09:16:22.973Z,51.38
2022-07-27T09:18:52.749Z,50.17
2022-07-27T09:21:22.154Z,48.25
2022-07-27T09:23:52.393Z,47.96
2022-07-27T09:26:36.749Z,47.42
2022-07-27T09:29:06.944Z,48.36
2022-07-27T09:31:36.387Z,48.52
2022-07-27T09:34:06.148Z,48.19
2022-07-27T09:36:35.429Z,48.12
2022-07-27T09:39:06.203Z,47.08
2022-07-27T09:41:35.630Z,46.87
2022-07-27T09:44:30.841Z,46.60
2022-07-27T09:46:54.177Z,47.06
2022-07-27T09:49:23.659Z,47.29
2022-07-27T09:52:01.705Z,47.49
2022-07-27T09:54:32.108Z,47.96
2022-07-27T09:57:04.270Z,48.37
2022-07-27T09:59:33.556Z,48.84
2022-07-27T10:02:03.053Z,49.05
2022-07-27T10:04:32.734Z,48.39
2022-07-27T10:07:04.643Z,48.26
2022-07-27T10:09:36.614Z,47.92
2022-07-27T10:12:06.563Z,47.84
2022-07-27T10:14:36.893Z,47.48
2022-07-27T10:17:06.409Z,47.26
2022-07-27T10:19:35.792Z,46.69
2022-07-27T10:22:05.170Z,47.13
2022-07-27T10:24:37.266Z,46.90
2022-07-27T10:27:07.208Z,47.93
2022-07-27T10:29:36.722Z,47.88
2022-07-27T10:32:05.952Z,47.36
2022-07-27T10:34:35.328Z,46.45
2022-07-27T10:37:04.589Z,46.26
2022-07-27T10:39:33.857Z,46.76
2022-07-27T10:42:03.185Z,46.26
2022-07-27T10:44:32.558Z,46.55
2022-07-27T10:47:02.006Z,44.70
2022-07-27T10:49:31.283Z,44.13
2022-07-27T10:52:00.520Z,45.24
2022-07-27T10:54:33.038Z,43.59
2022-07-27T10:57:02.747Z,43.28
2022-07-27T10:59:51.224Z,43.44
2022-07-27T11:02:23.602Z,43.84
2022-07-27T11:04:56.475Z,43.32
2022-07-27T11:07:34.293Z,42.94
2022-07-27T11:10:09.626Z,42.38
2022-07-27T11:12:39.501Z,43.12
2022-07-27T11:15:08.746Z,42.83
2022-07-27T11:18:00.686Z,42.62
2022-07-27T11:20:31.594Z,42.51
2022-07-27T11:23:48.709Z,42.87
2022-07-27T11:25:52.881Z,42.65
2022-07-27T11:28:22.730Z,43.10
2022-07-27T11:30:52.858Z,42.47
2022-07-27T11:33:22.193Z,42.46
2022-07-27T11:35:51.624Z,42.94
2022-07-27T11:38:21.105Z,41.72
2022-07-27T11:40:59.895Z,42.08
2022-07-27T11:43:39.001Z,41.75
2022-07-27T11:46:09.055Z,41.47
2022-07-27T11:49:03.961Z,40.72
2022-07-27T11:51:27.858Z,40.89
2022-07-27T11:53:57.135Z,40.77
2022-07-27T11:56:26.523Z,40.46
2022-07-27T11:59:01.285Z,40.77
2022-07-27T12:01:31.253Z,40.36
2022-07-27T12:04:00.629Z,40.61
2022-07-27T12:06:30.038Z,40.79
2022-07-27T12:08:59.333Z,40.48
2022-07-27T12:11:34.069Z,40.80
2022-07-27T12:14:04.080Z,40.01
2022-07-27T12:16:33.328Z,40.63
2022-07-27T12:19:02.690Z,40.47
2022-07-27T12:21:32.305Z,40.22
2022-07-27T12:24:02.191Z,40.29
2022-07-27T12:26:31.586Z,40.97
2022-07-27T12:29:01.018Z,40.63
2022-07-27T12:31:30.483Z,40.48
2022-07-27T12:34:06.106Z,40.85
2022-07-27T12:36:36.641Z,40.70
2022-07-27T12:39:06.003Z,40.89
2022-07-27T12:41:38.298Z,40.70
2022-07-27T12:44:07.733Z,40.73
2022-07-27T12:46:37.038Z,40.77
2022-07-27T12:49:06.518Z,40.65
2022-07-27T12:51:35.885Z,40.54
2022-07-27T12:54:05.309Z,40.14
2022-07-27T12:56:34.800Z,41.08
2022-07-27T12:59:04.151Z,40.67
2022-07-27T13:01:33.700Z,40.66
2022-07-27T13:04:03.407Z,40.44
2022-07-27T13:06:32.802Z,40.29
2022-07-27T13:09:02.066Z,40.10
2022-07-27T13:11:31.501Z,40.46
2022-07-27T13:14:00.691Z,40.68
2022-07-27T13:16:30.247Z,40.67
2022-07-27T13:18:59.585Z,40.08
2022-07-27T13:21:28.885Z,39.80
2022-07-27T13:23:59.081Z,40.26
2022-07-27T13:26:28.492Z,39.87
2022-07-27T13:28:57.718Z,40.40
2022-07-27T13:31:27.019Z,40.34
2022-07-27T13:33:56.443Z,40.83
2022-07-27T13:36:25.775Z,40.65
2022-07-27T13:38:55.184Z,40.27
2022-07-27T13:41:24.597Z,39.99
2022-07-27T13:43:54.025Z,40.23
2022-07-27T13:46:23.389Z,40.59
2022-07-27T13:48:53.602Z,40.82
2022-07-27T13:51:22.920Z,40.80
2022-07-27T13:53:52.118Z,40.03
2022-07-27T13:56:23.806Z,40.32
2022-07-27T13:58:54.775Z,39.93
2022-07-27T14:01:24.047Z,40.13
2022-07-27T14:03:53.680Z,39.95
2022-07-27T14:06:22.811Z,39.76
2022-07-27T14:08:54.317Z,39.83
2022-07-27T14:11:23.566Z,39.92
2022-07-27T14:13:52.760Z,39.98
2022-07-27T14:16:21.943Z,39.99
2022-07-27T14:18:51.157Z,39.29
2022-07-27T14:21:20.309Z,39.49
2022-07-27T14:23:49.617Z,39.90
2022-07-27T14:26:18.832Z,40.21
2022-07-27T14:28:48.005Z,39.64
2022-07-27T14:31:17.343Z,39.13
2022-07-27T14:33:47.400Z,39.20
2022-07-27T14:36:16.644Z,39.24
2022-07-27T14:38:45.958Z,39.52
2022-07-27T14:41:16.133Z,38.91
2022-07-27T14:43:45.362Z,39.42
2022-07-27T14:46:14.618Z,38.56
2022-07-27T14:51:32.946Z,31.68
2022-07-27T14:54:02.189Z,31.18
2022-07-27T14:56:31.470Z,30.38
2022-07-27T14:59:00.614Z,29.07
2022-07-27T15:01:29.926Z,27.28
2022-07-27T15:03:59.262Z,26.72
2022-07-27T15:06:28.631Z,25.11
2022-07-27T15:08:57.978Z,24.33
2022-07-27T15:11:27.999Z,22.99
2022-07-27T15:13:58.266Z,22.46
2022-07-27T15:16:27.448Z,22.06
2022-07-27T15:18:56.559Z,22.05
2022-07-27T15:21:25.788Z,22.43
2022-07-27T15:23:55.078Z,21.41
2022-07-27T15:26:24.880Z,20.90
2022-07-27T15:28:54.107Z,21.47
2022-07-27T15:31:23.358Z,22.49
2022-07-27T15:33:52.549Z,22.31
2022-07-27T15:36:32.050Z,21.69
2022-07-27T15:39:05.536Z,20.86
2022-07-27T15:41:37.651Z,19.94
2022-07-27T15:44:06.877Z,20.65
2022-07-27T15:46:36.060Z,23.64
2022-07-27T15:49:05.464Z,23.97
2022-07-27T15:51:34.730Z,22.61
2022-07-27T15:54:03.924Z,21.97
2022-07-27T15:56:33.277Z,21.49
2022-07-27T15:59:03.407Z,21.10
2022-07-27T16:01:35.190Z,20.19
2022-07-27T16:04:05.452Z,19.67
2022-07-27T16:06:39.031Z,19.52
2022-07-27T16:09:10.885Z,18.96
2022-07-27T16:11:41.515Z,19.28
2022-07-27T16:14:10.684Z,18.86
2022-07-27T16:16:39.865Z,18.18
2022-07-27T16:19:13.039Z,17.59
2022-07-27T16:21:54.660Z,17.49
2022-07-27T16:24:25.510Z,18.24
2022-07-27T16:26:54.652Z,18.49
2022-07-27T16:29:23.978Z,18.41
2022-07-27T16:31:58.460Z,18.43
2022-07-27T16:34:28.265Z,18.29
2022-07-27T16:36:57.358Z,18.11
2022-07-27T16:39:26.605Z,18.14
2022-07-27T16:41:55.816Z,18.32
2022-07-27T16:44:25.074Z,18.77
2022-07-27T16:46:54.463Z,18.81
2022-07-27T16:49:33.870Z,18.45
2022-07-27T16:52:06.724Z,18.47
2022-07-27T16:54:39.653Z,18.04
2022-07-27T16:57:11.159Z,18.15
2022-07-27T16:59:42.153Z,18.31
2022-07-27T17:02:11.584Z,18.24
2022-07-27T17:04:41.200Z,19.55
2022-07-27T17:07:12.238Z,21.05
2022-07-27T17:09:42.459Z,21.22
2022-07-27T17:12:11.771Z,21.14
2022-07-27T17:14:47.122Z,20.95
2022-07-27T17:17:18.083Z,20.80
2022-07-27T17:19:47.473Z,20.59
2022-07-27T17:22:16.818Z,20.50
2022-07-27T17:24:46.711Z,20.49
2022-07-27T17:27:15.978Z,20.72
2022-07-27T17:29:45.290Z,20.88
2022-07-27T17:32:14.651Z,21.25
2022-07-27T17:34:46.053Z,21.28
2022-07-27T17:37:15.737Z,21.37
2022-07-27T17:39:45.072Z,21.35
2022-07-27T17:42:14.323Z,21.82
2022-07-27T17:44:43.621Z,21.75
2022-07-27T17:47:13.595Z,22.34
2022-07-27T17:49:46.399Z,22.79
2022-07-27T17:52:15.544Z,23.22
2022-07-27T17:54:47.983Z,23.87
2022-07-27T17:57:17.172Z,24.58
2022-07-27T17:59:46.878Z,25.07
2022-07-27T18:02:19.181Z,24.99
2022-07-27T18:04:48.565Z,25.52
2022-07-27T18:07:18.878Z,25.72
2022-07-27T18:09:48.021Z,26.16
2022-07-27T18:12:21.776Z,27.90
2022-07-27T18:15:08.853Z,29.07
2022-07-27T18:17:39.719Z,30.02
2022-07-27T18:20:09.795Z,31.56
2022-07-27T18:22:39.564Z,32.34
2022-07-27T18:25:09.480Z,33.61
2022-07-27T18:27:38.773Z,35.02
2022-07-27T18:30:08.131Z,36.28
2022-07-27T18:32:37.438Z,37.66
2022-07-27T18:35:06.608Z,38.38
2022-07-27T18:37:35.962Z,38.65
2022-07-27T18:40:05.397Z,39.14
2022-07-27T18:42:34.623Z,39.13
2022-07-27T18:45:03.886Z,40.82
2022-07-27T18:47:33.217Z,41.82
2022-07-27T18:50:02.412Z,41.85
2022-07-27T18:52:31.713Z,41.91
2022-07-27T18:55:01.010Z,42.76
2022-07-27T18:57:32.382Z,42.46
2022-07-27T19:00:01.621Z,43.56
2022-07-27T19:02:37.142Z,43.44
2022-07-27T19:05:10.416Z,44.10
2022-07-27T19:07:43.953Z,44.45
2022-07-27T19:10:16.294Z,44.43
2022-07-27T19:12:45.618Z,44.40
2022-07-27T19:15:15.088Z,44.78
2022-07-27T19:17:47.738Z,45.26
2022-07-27T19:20:17.075Z,45.72
2022-07-27T19:22:48.109Z,46.53
2022-07-27T19:25:17.650Z,46.91
2022-07-27T19:27:46.920Z,47.76
2022-07-27T19:30:16.876Z,48.24
2022-07-27T19:32:47.858Z,49.08
2022-07-27T19:35:20.288Z,49.94
2022-07-27T19:37:49.718Z,50.28
2022-07-27T19:43:08.309Z,51.85
2022-07-27T19:45:37.767Z,52.73
2022-07-27T19:48:08.722Z,53.67
2022-07-27T19:50:38.096Z,54.35
2022-07-27T19:53:07.841Z,54.97
2022-07-27T19:55:37.043Z,56.12
2022-07-27T19:58:06.258Z,56.86
2022-07-27T20:00:35.415Z,57.68
2022-07-27T20:03:04.722Z,58.53
2022-07-27T20:05:33.898Z,58.72
2022-07-27T20:08:03.198Z,59.04
2022-07-27T20:10:33.072Z,59.82
2022-07-27T20:13:03.316Z,60.30
2022-07-27T20:15:34.250Z,61.04
2022-07-27T20:18:03.539Z,61.34
2022-07-27T20:20:32.775Z,61.29
2022-07-27T20:23:02.697Z,61.96
2022-07-27T20:25:32.039Z,62.76
2022-07-27T20:28:03.575Z,63.55
2022-07-27T20:30:33.029Z,63.46
2022-07-27T20:33:02.341Z,63.56
2022-07-27T20:35:37.637Z,64.24
2022-07-27T20:38:07.635Z,64.53
2022-07-27T20:40:36.882Z,65.18
2022-07-27T20:43:06.123Z,65.98
2022-07-27T20:45:35.569Z,66.65
2022-07-27T20:48:04.870Z,67.27
2022-07-27T20:50:34.586Z,67.75
2022-07-27T20:53:05.836Z,68.01
2022-07-27T20:55:35.272Z,68.53
2022-07-27T20:58:04.535Z,69.01
2022-07-27T21:00:33.918Z,70.04
2022-07-27T21:03:03.776Z,70.66
2022-07-27T21:05:33.018Z,72.47
2022-07-27T21:08:02.217Z,72.07
2022-07-27T21:10:31.535Z,71.76
2022-07-27T21:13:00.774Z,72.71
2022-07-27T21:15:33.966Z,73.04
2022-07-27T21:18:04.038Z,73.55
2022-07-27T21:20:33.272Z,73.74
2022-07-27T21:23:20.140Z,74.19
2022-07-27T21:25:49.389Z,74.98
2022-07-27T21:28:21.010Z,75.41
2022-07-27T21:30:54.482Z,76.06
2022-07-27T21:33:23.865Z,75.52
2022-07-27T21:35:53.316Z,75.83
2022-07-27T21:38:22.534Z,75.95
2022-07-27T21:40:52.530Z,76.07
2022-07-27T21:43:21.692Z,76.67
2022-07-27T21:45:52.246Z,77.04
2022-07-27T21:48:21.631Z,77.56
2022-07-27T21:50:50.943Z,77.75
2022-07-27T21:53:20.230Z,78.66
2022-07-27T21:55:49.641Z,78.93
2022-07-27T21:58:18.950Z,79.03
2022-07-27T22:00:48.182Z,79.56
2022-07-27T22:03:17.638Z,80.30
2022-07-27T22:05:46.938Z,80.74
2022-07-27T22:08:16.134Z,80.52
2022-07-27T22:10:45.436Z,81.09
2022-07-27T22:13:14.758Z,81.77
2022-07-27T22:15:43.907Z,81.98
2022-07-27T22:18:13.054Z,82.35
2022-07-27T22:20:42.231Z,82.85
2022-07-27T22:23:11.377Z,82.82
2022-07-27T22:25:40.522Z,82.76
2022-07-27T22:28:09.792Z,82.73
2022-07-27T22:30:40.417Z,83.51
2022-07-27T22:33:09.790Z,83.14
2022-07-27T22:35:39.019Z,83.88
2022-07-27T22:38:08.993Z,84.31
2022-07-27T22:40:38.221Z,84.73
2022-07-27T22:43:07.997Z,84.94
2022-07-27T22:45:37.872Z,85.04
2022-07-27T22:48:07.000Z,86.09
2022-07-27T22:50:36.176Z,86.62
2022-07-27T22:53:05.412Z,86.72
2022-07-27T22:55:34.710Z,87.14
2022-07-27T22:58:03.955Z,87.80
2022-07-27T23:00:33.371Z,87.57
2022-07-27T23:03:04.497Z,87.98
2022-07-27T23:05:33.733Z,88.15
2022-07-27T23:08:02.989Z,88.57
2022-07-27T23:10:49.991Z,89.38
2022-07-27T23:13:19.340Z,89.73
2022-07-27T23:15:48.644Z,90.10
2022-07-27T23:18:17.922Z,89.97
2022-07-27T23:20:47.283Z,90.15
2022-07-27T23:23:17.348Z,90.13
2022-07-27T23:25:47.151Z,90.52
2022-07-27T23:28:16.911Z,90.83
2022-07-27T23:30:46.214Z,90.97
2022-07-27T23:33:16.107Z,91.36
2022-07-27T23:35:45.408Z,91.72
2022-07-27T23:38:14.621Z,91.86
2022-07-27T23:40:43.874Z,92.37
2022-07-27T23:43:13.132Z,93.23
2022-07-27T23:45:42.395Z,93.86
2022-07-27T23:48:11.790Z,94.08
2022-07-27T23:50:41.085Z,94.36
2022-07-27T23:53:10.340Z,94.83
2022-07-27T23:55:39.612Z,94.94
2022-07-27T23:58:08.950Z,95.28
